createdAt,value
2018-05-10T00:01:13.512Z,7.43
2018-05-10T00:05:16.074Z,7.93
2018-05-10T00:09:18.598Z,6.87
2018-05-10T00:13:21.128Z,7.57
2018-05-10T00:17:23.640Z,8.03
2018-05-10T00:21:26.732Z,6.93
2018-05-10T00:25:29.260Z,6.57
2018-05-10T00:29:31.797Z,7.23
2018-05-10T00:33:34.327Z,6.83
2018-05-10T00:37:36.843Z,7.00
2018-05-10T00:41:40.144Z,7.73
2018-05-10T00:45:43.434Z,7.20
2018-05-10T00:49:46.729Z,6.97
2018-05-10T00:53:49.273Z,7.60
2018-05-10T00:57:51.790Z,7.67
2018-05-10T01:01:54.316Z,7.83
2018-05-10T01:05:56.852Z,7.63
2018-05-10T01:09:59.388Z,7.30
2018-05-10T01:14:01.919Z,7.60
2018-05-10T01:18:05.100Z,8.10
2018-05-10T01:22:07.644Z,7.40
2018-05-10T01:26:10.935Z,7.63
2018-05-10T01:30:14.223Z,7.90
2018-05-10T01:34:16.751Z,8.10
2018-05-10T01:38:19.277Z,8.10
2018-05-10T01:42:33.300Z,8.17
2018-05-10T01:46:36.029Z,8.10
2018-05-10T01:50:39.355Z,8.47
2018-05-10T01:54:41.915Z,9.07
2018-05-10T01:58:44.508Z,8.73
2018-05-10T02:02:47.028Z,8.33
2018-05-10T02:06:49.556Z,7.80
2018-05-10T02:10:52.088Z,8.53
2018-05-10T02:14:55.384Z,8.50
2018-05-10T02:18:58.684Z,7.47
2018-05-10T02:23:01.968Z,8.17
2018-05-10T02:27:04.516Z,8.13
2018-05-10T02:31:07.060Z,8.20
2018-05-10T02:35:10.372Z,8.13
2018-05-10T02:39:13.999Z,8.70
2018-05-10T02:43:16.516Z,8.60
2018-05-10T02:47:19.065Z,8.83
2018-05-10T02:51:21.592Z,8.23
2018-05-10T02:55:24.129Z,9.03
2018-05-10T02:59:26.662Z,8.10
2018-05-10T03:03:29.187Z,8.23
2018-05-10T03:07:31.732Z,9.00
2018-05-10T03:11:34.327Z,8.97
2018-05-10T03:15:36.884Z,9.13
2018-05-10T03:19:39.432Z,8.73
2018-05-10T03:23:41.967Z,8.73
2018-05-10T03:27:44.517Z,8.10
2018-05-10T03:31:47.080Z,8.87
2018-05-10T03:35:50.397Z,8.80
2018-05-10T03:39:52.969Z,8.47
2018-05-10T03:43:56.320Z,9.10
2018-05-10T03:47:58.896Z,9.00
2018-05-10T03:52:01.447Z,10.17
2018-05-10T03:56:03.995Z,9.50
2018-05-10T04:00:06.542Z,9.07
2018-05-10T04:04:33.608Z,8.70
2018-05-10T04:08:47.901Z,9.50
2018-05-10T04:12:50.449Z,9.03
2018-05-10T04:16:52.991Z,9.20
2018-05-10T04:20:55.528Z,9.80
2018-05-10T04:24:58.064Z,10.60
2018-05-10T04:29:00.604Z,10.33
2018-05-10T04:33:03.996Z,10.50
2018-05-10T04:37:06.544Z,11.03
2018-05-10T04:41:09.083Z,10.80
2018-05-10T04:45:11.621Z,9.17
2018-05-10T04:49:14.148Z,9.43
2018-05-10T04:53:16.720Z,10.30
2018-05-10T04:57:19.266Z,10.07
2018-05-10T05:01:22.583Z,10.57
2018-05-10T05:05:25.896Z,10.60
2018-05-10T05:09:28.427Z,11.73
2018-05-10T05:13:30.981Z,11.33
2018-05-10T05:17:33.527Z,11.20
2018-05-10T05:21:36.926Z,12.10
2018-05-10T05:25:39.396Z,11.20
2018-05-10T05:29:41.920Z,11.37
2018-05-10T05:33:44.478Z,11.87
2018-05-10T05:37:47.812Z,12.90
2018-05-10T05:41:50.388Z,12.33
2018-05-10T05:45:52.939Z,11.80
2018-05-10T05:49:55.489Z,11.50
2018-05-10T05:53:58.032Z,11.33
2018-05-10T05:58:01.331Z,10.77
2018-05-10T06:02:03.892Z,10.70
2018-05-10T06:06:06.431Z,11.67
2018-05-10T06:10:08.960Z,10.77
2018-05-10T06:14:11.496Z,10.60
2018-05-10T06:18:14.044Z,9.37
2018-05-10T06:22:16.579Z,8.03
2018-05-10T06:26:19.111Z,8.80
2018-05-10T06:30:21.707Z,8.17
2018-05-10T06:34:24.345Z,8.17
2018-05-10T06:38:26.909Z,8.60
2018-05-10T06:42:29.442Z,10.97
2018-05-10T06:46:31.983Z,14.47
2018-05-10T06:50:34.499Z,18.50
2018-05-10T06:54:37.096Z,22.37
2018-05-10T06:58:39.603Z,25.33
2018-05-10T07:02:42.943Z,26.40
2018-05-10T07:06:45.504Z,26.43
2018-05-10T07:10:48.081Z,27.77
2018-05-10T07:14:50.602Z,28.07
2018-05-10T07:18:53.140Z,28.17
2018-05-10T07:22:55.686Z,27.57
2018-05-10T07:26:58.264Z,27.87
2018-05-10T07:31:00.804Z,28.00
2018-05-10T07:35:04.095Z,25.80
2018-05-10T07:39:06.642Z,25.87
2018-05-10T07:43:09.209Z,25.63
2018-05-10T07:47:11.756Z,24.67
2018-05-10T07:51:14.296Z,24.37
2018-05-10T07:55:16.807Z,23.90
2018-05-10T07:59:19.378Z,24.23
2018-05-10T08:03:21.932Z,23.30
2018-05-10T08:07:24.475Z,22.77
2018-05-10T08:11:27.030Z,25.93
2018-05-10T08:15:29.568Z,26.80
2018-05-10T08:19:32.881Z,28.53
2018-05-10T08:23:47.197Z,34.60
2018-05-10T08:27:49.728Z,45.13
2018-05-10T08:31:52.269Z,49.73
2018-05-10T08:35:54.799Z,52.80
2018-05-10T08:39:57.322Z,55.63
2018-05-10T08:43:59.855Z,58.47
2018-05-10T08:48:03.157Z,60.20
2018-05-10T08:52:06.529Z,59.00
2018-05-10T08:56:09.056Z,58.03
2018-05-10T09:00:11.589Z,60.23
2018-05-10T09:04:14.163Z,58.60
2018-05-10T09:08:16.691Z,57.97
2018-05-10T09:12:19.251Z,58.67
2018-05-10T09:16:21.802Z,57.23
2018-05-10T09:20:24.385Z,57.83
2018-05-10T09:24:26.940Z,60.47
2018-05-10T09:28:30.316Z,56.57
2018-05-10T09:32:32.860Z,56.47
2018-05-10T09:36:35.397Z,52.53
2018-05-10T09:40:37.986Z,52.07
2018-05-10T09:44:40.555Z,48.20
2018-05-10T09:48:43.095Z,43.83
2018-05-10T09:52:45.856Z,43.10
2018-05-10T09:56:48.339Z,39.03
2018-05-10T10:00:51.637Z,38.30
2018-05-10T10:04:54.179Z,39.57
2018-05-10T10:08:56.730Z,37.50
2018-05-10T10:13:00.027Z,34.47
2018-05-10T10:17:03.344Z,33.87
2018-05-10T10:21:05.862Z,33.40
2018-05-10T10:25:08.421Z,31.83
2018-05-10T10:29:10.967Z,30.13
2018-05-10T10:33:13.517Z,29.03
2018-05-10T10:37:16.071Z,27.00
2018-05-10T10:41:19.716Z,27.53
2018-05-10T10:45:22.272Z,25.87
2018-05-10T10:49:24.811Z,25.80
2018-05-10T10:53:27.361Z,25.83
2018-05-10T10:57:29.931Z,23.27
2018-05-10T11:01:32.529Z,22.73
2018-05-10T11:05:34.998Z,19.80
2018-05-10T11:09:37.543Z,19.10
2018-05-10T11:13:40.843Z,18.10
2018-05-10T11:17:43.386Z,17.47
2018-05-10T11:21:45.908Z,15.87
2018-05-10T11:25:48.467Z,16.30
2018-05-10T11:29:51.008Z,17.17
2018-05-10T11:33:53.545Z,15.97
2018-05-10T11:37:56.115Z,16.63
2018-05-10T11:41:58.636Z,17.23
2018-05-10T11:46:01.174Z,17.93
2018-05-10T11:50:03.713Z,16.80
2018-05-10T11:54:06.252Z,16.77
2018-05-10T11:58:08.819Z,16.07
2018-05-10T12:02:11.335Z,16.50
2018-05-10T12:06:13.883Z,16.17
2018-05-10T12:10:16.428Z,15.80
2018-05-10T12:14:18.958Z,15.13
2018-05-10T12:18:21.500Z,14.20
2018-05-10T12:22:24.020Z,14.23
2018-05-10T12:26:26.566Z,14.63
2018-05-10T12:30:30.827Z,13.30
2018-05-10T12:34:34.142Z,13.87
2018-05-10T12:38:36.674Z,13.57
2018-05-10T12:42:39.212Z,11.30
2018-05-10T12:46:41.735Z,11.20
2018-05-10T12:50:44.336Z,11.50
2018-05-10T12:54:46.888Z,11.17
2018-05-10T12:58:49.421Z,10.43
2018-05-10T13:02:52.952Z,8.90
2018-05-10T13:06:56.315Z,8.00
2018-05-10T13:10:59.547Z,6.97
2018-05-10T13:15:02.093Z,7.17
2018-05-10T13:19:04.638Z,7.43
2018-05-10T13:23:07.178Z,7.10
2018-05-10T13:27:09.696Z,7.43
2018-05-10T13:31:12.236Z,6.27
2018-05-10T13:35:14.767Z,7.10
2018-05-10T13:39:20.466Z,7.10
2018-05-10T13:43:23.006Z,6.43
2018-05-10T13:47:25.555Z,5.70
2018-05-10T13:51:28.080Z,5.87
2018-05-10T13:55:30.624Z,5.20
2018-05-10T13:59:33.169Z,6.10
2018-05-10T14:03:35.709Z,5.63
2018-05-10T14:07:38.221Z,6.03
2018-05-10T14:11:40.750Z,5.63
2018-05-10T14:15:43.278Z,5.30
2018-05-10T14:19:45.811Z,5.40
2018-05-10T14:23:48.358Z,5.70
2018-05-10T14:27:50.873Z,5.90
2018-05-10T14:31:53.405Z,4.60
2018-05-10T14:35:56.700Z,5.40
2018-05-10T14:39:59.223Z,5.50
2018-05-10T14:44:01.758Z,6.27
2018-05-10T16:11:36.325Z,5.17
2018-05-10T16:15:38.851Z,5.43
2018-05-10T16:19:41.404Z,5.23
2018-05-10T16:23:44.718Z,5.70
2018-05-10T16:27:47.219Z,5.07
2018-05-10T16:31:49.741Z,5.33
2018-05-10T16:35:52.264Z,5.10
2018-05-10T16:39:55.560Z,4.33
2018-05-10T16:43:58.863Z,4.70
2018-05-10T16:48:01.369Z,4.63
2018-05-10T16:52:03.907Z,5.00
2018-05-10T16:56:06.439Z,4.80
2018-05-10T17:00:08.979Z,4.40
2018-05-10T17:04:11.520Z,4.67
2018-05-10T17:08:14.629Z,4.30
2018-05-10T17:12:17.166Z,3.93
2018-05-10T17:16:19.704Z,4.20
2018-05-10T17:20:22.244Z,3.93
2018-05-10T17:24:25.754Z,4.00
2018-05-10T17:28:29.052Z,4.07
2018-05-10T17:32:31.587Z,3.87
2018-05-10T17:36:34.121Z,3.50
2018-05-10T17:40:37.421Z,3.50
2018-05-10T17:44:40.727Z,4.10
2018-05-10T17:48:43.996Z,3.90
2018-05-10T17:52:46.523Z,3.67
2018-05-10T17:56:49.124Z,3.80
2018-05-10T18:00:51.704Z,3.63
2018-05-10T18:04:54.210Z,3.90
2018-05-10T18:08:56.738Z,3.80
2018-05-10T18:12:59.273Z,3.50
2018-05-10T18:17:01.892Z,3.63
2018-05-10T18:21:04.438Z,3.60
2018-05-10T18:25:07.388Z,4.07
2018-05-10T18:29:10.006Z,3.67
2018-05-10T18:33:12.552Z,4.10
2018-05-10T18:37:15.246Z,3.60
2018-05-10T18:41:18.627Z,3.63
2018-05-10T18:45:21.167Z,3.63
2018-05-10T18:49:24.440Z,3.63
2018-05-10T18:53:26.983Z,3.80
2018-05-10T18:57:29.508Z,3.10
2018-05-10T19:01:32.832Z,3.67
2018-05-10T19:05:36.130Z,3.50
2018-05-10T19:09:39.413Z,3.47
2018-05-10T19:13:42.029Z,3.30
2018-05-10T19:17:44.503Z,3.10
2018-05-10T19:21:47.799Z,3.77
2018-05-10T19:25:50.339Z,3.10
2018-05-10T19:29:52.872Z,3.73
2018-05-10T19:33:55.403Z,3.80
2018-05-10T19:37:57.952Z,4.10
2018-05-10T19:42:01.240Z,3.83
2018-05-10T19:46:03.780Z,4.03
2018-05-10T19:50:06.318Z,4.63
2018-05-10T19:54:09.599Z,4.47
2018-05-10T19:58:12.136Z,4.70
2018-05-10T20:02:14.671Z,5.03
2018-05-10T20:06:17.221Z,4.90
2018-05-10T20:10:19.759Z,4.60
2018-05-10T20:14:23.035Z,4.83
2018-05-10T20:18:25.583Z,5.03
2018-05-10T20:22:28.124Z,5.23
2018-05-10T20:26:30.656Z,4.40
2018-05-10T20:30:33.198Z,4.13
2018-05-10T20:34:35.698Z,4.67
2018-05-10T20:38:39.944Z,5.00
2018-05-10T20:42:42.619Z,4.80
2018-05-10T20:46:45.272Z,4.40
2018-05-10T20:50:47.799Z,4.60
2018-05-10T20:54:50.307Z,4.10
2018-05-10T20:58:52.844Z,4.23
2018-05-10T21:02:56.164Z,4.83
2018-05-10T21:06:58.722Z,4.90
2018-05-10T21:11:01.520Z,5.03
2018-05-10T21:15:04.053Z,5.32
2018-05-10T21:19:06.585Z,5.10
2018-05-10T21:23:14.019Z,5.10
2018-05-10T21:27:17.425Z,5.13
2018-05-10T21:31:20.040Z,5.23
2018-05-10T21:35:22.664Z,5.73
2018-05-10T21:39:26.012Z,6.03
2018-05-10T21:43:28.658Z,5.77
2018-05-10T21:47:32.037Z,6.37
2018-05-10T21:51:35.299Z,6.57
2018-05-10T21:55:37.924Z,6.70
2018-05-10T21:59:40.502Z,6.43
2018-05-10T22:03:43.181Z,6.70
2018-05-10T22:07:45.785Z,6.50
2018-05-10T22:11:48.327Z,6.53
2018-05-10T22:15:50.864Z,6.57
2018-05-10T22:19:53.391Z,7.17
2018-05-10T22:23:55.940Z,6.90
2018-05-10T22:27:58.475Z,7.53
2018-05-10T22:32:01.011Z,7.37
2018-05-10T22:36:03.568Z,7.33
2018-05-10T22:40:06.099Z,7.57
2018-05-10T22:44:09.400Z,7.13
2018-05-10T22:48:12.699Z,6.23
2018-05-10T22:52:15.994Z,6.90
2018-05-10T22:56:19.290Z,6.70
2018-05-10T23:00:21.813Z,7.00
2018-05-10T23:04:24.353Z,6.23
2018-05-10T23:08:26.881Z,7.13
2018-05-10T23:12:29.412Z,6.50
2018-05-10T23:16:31.950Z,7.30
2018-05-10T23:20:34.468Z,6.93
2018-05-10T23:24:37.001Z,6.20
2018-05-10T23:28:40.307Z,6.47
2018-05-10T23:32:42.839Z,6.97
2018-05-10T23:36:45.383Z,6.43
2018-05-10T23:40:47.901Z,6.63
2018-05-10T23:44:50.431Z,6.80
2018-05-10T23:48:53.733Z,7.30
2018-05-10T23:52:57.028Z,7.53
2018-05-10T23:56:59.556Z,8.40
